createdAt,value
2022-10-10T09:16:53.941Z,1151.38
2022-10-10T09:19:25.581Z,891.57
2022-10-10T09:21:57.185Z,938.50
2022-10-10T09:24:42.594Z,1078.83
2022-10-10T09:27:16.409Z,1006.20
2022-10-10T09:30:02.448Z,923.20
2022-10-10T09:32:45.916Z,899.03
2022-10-10T09:35:34.599Z,990.10
2022-10-10T09:38:16.615Z,886.50
2022-10-10T09:40:49.947Z,969.50
2022-10-10T09:43:20.662Z,910.40
2022-10-10T09:45:56.307Z,1047.47
2022-10-10T09:48:29.135Z,974.50
2022-10-10T09:50:56.026Z,1129.87
2022-10-10T09:53:23.104Z,1117.20
2022-10-10T09:55:53.645Z,1164.57
2022-10-10T09:58:42.629Z,1074.37
2022-10-10T10:01:24.513Z,1107.60
2022-10-10T10:04:34.240Z,1046.23
2022-10-10T10:07:19.339Z,1006.43
2022-10-10T10:10:18.201Z,1088.53
2022-10-10T10:12:45.892Z,838.03
2022-10-10T10:15:27.003Z,586.00
2022-10-10T10:18:24.623Z,603.53
2022-10-10T10:21:06.164Z,461.33
2022-10-10T10:23:42.497Z,509.77
2022-10-10T10:26:29.218Z,568.93
2022-10-10T10:28:57.889Z,690.70
2022-10-10T10:31:49.003Z,808.00
2022-10-10T10:34:30.395Z,614.20
2022-10-10T10:37:26.817Z,488.90
2022-10-10T10:40:21.252Z,383.87
2022-10-10T10:43:05.737Z,459.40
2022-10-10T10:45:42.512Z,671.60
2022-10-10T10:48:32.475Z,672.30
2022-10-10T10:51:07.117Z,610.87
2022-10-10T10:53:52.002Z,647.40
2022-10-10T10:56:28.288Z,669.43
2022-10-10T11:02:08.133Z,514.27
2022-10-10T11:05:20.028Z,407.87
2022-10-10T11:08:07.102Z,521.93
2022-10-10T11:10:37.700Z,789.90
2022-10-10T11:13:28.152Z,861.70
2022-10-10T11:16:08.747Z,794.07
2022-10-10T11:18:51.025Z,959.50
2022-10-10T11:21:23.197Z,1049.17
2022-10-10T11:23:57.621Z,956.80
2022-10-10T11:26:32.977Z,868.40
2022-10-10T11:29:03.011Z,1028.77
2022-10-10T11:31:50.052Z,892.07
2022-10-10T11:34:19.443Z,940.67
2022-10-10T11:36:47.120Z,970.77
2022-10-10T11:39:22.992Z,905.07
2022-10-10T11:42:02.613Z,1072.17
2022-10-10T11:44:37.717Z,950.83
2022-10-10T11:47:18.336Z,861.20
2022-10-10T11:50:13.642Z,863.47
2022-10-10T11:53:05.139Z,745.50
2022-10-10T11:55:39.919Z,778.20
2022-10-10T11:58:06.515Z,626.80
2022-10-10T12:00:42.565Z,665.57
2022-10-10T12:03:09.766Z,688.50
2022-10-10T12:05:40.220Z,474.23
2022-10-10T12:08:20.384Z,349.70
2022-10-10T12:10:52.767Z,368.37
2022-10-10T12:13:36.875Z,333.07
2022-10-10T12:16:11.480Z,326.93
2022-10-10T12:18:45.829Z,305.23
2022-10-10T12:21:14.183Z,146.17
2022-10-10T12:23:43.135Z,101.00
2022-10-10T12:26:48.638Z,290.67
2022-10-10T12:29:35.185Z,576.23
2022-10-10T13:00:59.012Z,458.20
2022-10-10T13:03:42.153Z,1119.37
2022-10-10T13:06:23.695Z,999.43
2022-10-10T13:08:51.890Z,968.80
2022-10-10T13:11:18.517Z,990.37
2022-10-10T13:13:56.484Z,818.90
2022-10-10T13:16:32.831Z,718.97
2022-10-10T13:19:00.630Z,735.83
2022-10-10T13:21:30.941Z,606.10
2022-10-10T13:24:04.474Z,481.93
2022-10-10T13:26:38.490Z,346.83
2022-10-10T13:29:31.542Z,231.33
2022-10-10T13:32:08.125Z,368.13
2022-10-10T13:34:39.962Z,640.90
2022-10-10T13:37:07.079Z,832.07
2022-10-10T13:39:37.493Z,980.13
2022-10-10T13:42:06.000Z,1044.83
2022-10-10T13:44:48.368Z,1013.50
2022-10-10T13:47:46.097Z,984.77
2022-10-10T13:50:34.381Z,708.47
2022-10-10T13:53:25.768Z,628.63
2022-10-10T13:56:07.608Z,302.10
2022-10-10T13:58:39.302Z,217.60
2022-10-10T14:01:06.291Z,234.67
2022-10-10T14:03:33.799Z,359.47
2022-10-10T14:06:00.851Z,277.73
2022-10-10T14:08:33.122Z,141.03
2022-10-10T14:11:05.635Z,137.27
2022-10-10T14:13:34.398Z,154.27
2022-10-10T14:16:30.081Z,400.77
2022-10-10T14:18:56.691Z,464.73
2022-10-10T14:21:23.318Z,640.20
2022-10-10T14:23:49.930Z,601.20
2022-10-10T14:26:19.472Z,526.93
2022-10-10T14:28:46.512Z,481.43
2022-10-10T14:31:13.662Z,434.07
2022-10-10T14:33:40.386Z,375.17
2022-10-10T14:36:07.175Z,421.47
2022-10-10T14:38:34.060Z,403.80
2022-10-10T14:41:01.540Z,303.93
2022-10-10T14:43:28.435Z,229.27
2022-10-10T14:45:55.053Z,504.50
2022-10-10T14:48:21.823Z,410.73
2022-10-10T14:50:49.159Z,271.60
2022-10-10T14:53:16.128Z,118.83
2022-10-10T14:55:43.558Z,92.97
2022-10-10T14:58:18.454Z,108.87
2022-10-10T15:00:45.261Z,110.93
2022-10-10T15:03:12.028Z,88.87
2022-10-10T15:05:38.911Z,59.63
2022-10-10T15:08:05.704Z,49.53
2022-10-10T15:10:34.101Z,67.97
2022-10-10T15:13:01.953Z,59.30
2022-10-10T15:15:28.777Z,50.53
2022-10-10T15:17:58.536Z,45.57
2022-10-10T15:20:30.665Z,40.27
2022-10-10T15:23:03.306Z,35.77
2022-10-10T15:25:33.782Z,29.03
2022-10-10T15:28:04.367Z,24.37
2022-10-10T15:30:31.095Z,20.90
2022-10-10T15:32:57.728Z,30.90
2022-10-10T15:35:25.419Z,16.67
2022-10-10T15:37:52.045Z,21.57
2022-10-10T15:40:22.075Z,17.13
2022-10-10T15:42:49.962Z,15.23
2022-10-10T15:45:31.229Z,15.13
2022-10-10T15:48:04.489Z,15.10
2022-10-10T15:50:32.388Z,19.93
2022-10-10T15:52:58.955Z,13.07
2022-10-10T15:55:25.554Z,21.57
2022-10-10T15:57:52.145Z,10.63
2022-10-10T16:00:18.912Z,16.17
2022-10-10T16:02:45.477Z,16.43
2022-10-10T16:05:12.050Z,14.00
2022-10-10T16:07:47.643Z,16.07
2022-10-10T16:10:15.415Z,20.10
2022-10-10T16:12:42.348Z,21.60
2022-10-10T16:15:09.339Z,13.80
2022-10-10T16:17:35.975Z,16.37
2022-10-10T16:20:02.966Z,20.27
2022-10-10T16:22:29.566Z,18.53
2022-10-10T16:27:43.179Z,16.30
2022-10-10T16:30:10.733Z,17.13
2022-10-10T16:32:41.986Z,15.93
2022-10-10T16:35:09.291Z,15.20
2022-10-10T16:37:35.939Z,16.67
2022-10-10T16:40:02.633Z,19.03
2022-10-10T16:42:29.225Z,14.87
2022-10-10T16:44:56.054Z,13.33
2022-10-10T16:47:22.647Z,21.47
2022-10-10T16:49:49.250Z,21.73
2022-10-10T16:52:15.874Z,16.00
2022-10-10T16:54:42.453Z,16.60
2022-10-10T16:57:09.137Z,27.20
2022-10-10T16:59:35.803Z,20.23
2022-10-10T17:02:02.391Z,17.80
2022-10-10T17:04:28.978Z,17.37
2022-10-10T17:06:55.547Z,15.30
2022-10-10T17:09:23.663Z,23.03
2022-10-10T17:11:51.490Z,22.93
2022-10-10T17:14:18.533Z,16.40
2022-10-10T17:17:10.687Z,20.10
2022-10-10T17:19:32.680Z,23.60
2022-10-10T17:21:59.540Z,25.33
2022-10-10T17:24:26.203Z,19.17
2022-10-10T17:26:52.939Z,20.83
2022-10-10T17:29:19.741Z,23.20
2022-10-10T17:31:46.322Z,26.70
2022-10-10T17:34:12.950Z,22.00
2022-10-10T17:36:39.540Z,26.43
2022-10-10T17:39:07.517Z,21.53
2022-10-10T17:41:34.344Z,25.50
2022-10-10T17:44:01.054Z,38.13
2022-10-10T17:46:36.411Z,32.33
2022-10-10T17:49:05.439Z,29.13
2022-10-10T17:51:32.692Z,36.80
2022-10-10T17:54:00.660Z,27.63
2022-10-10T17:56:27.391Z,27.23
2022-10-10T17:58:54.154Z,23.73
2022-10-10T18:01:21.791Z,34.93
2022-10-10T18:03:48.787Z,24.73
2022-10-10T18:06:18.514Z,23.90
2022-10-10T18:08:47.398Z,27.73
2022-10-10T18:11:16.850Z,20.90
2022-10-10T18:13:43.743Z,21.80
2022-10-10T18:16:18.635Z,27.07
2022-10-10T18:18:51.083Z,27.27
2022-10-10T18:21:19.827Z,30.70
2022-10-10T18:23:46.493Z,32.60
2022-10-10T18:26:16.622Z,35.87
2022-10-10T18:28:43.928Z,40.00
2022-10-10T18:31:14.321Z,31.70
2022-10-10T18:33:42.209Z,42.87
2022-10-10T18:36:09.831Z,30.63
2022-10-10T18:38:37.575Z,31.63
2022-10-10T18:41:34.789Z,39.63
2022-10-10T18:44:06.622Z,32.13
2022-10-10T18:46:34.093Z,35.37
2022-10-10T18:49:01.707Z,35.03
2022-10-10T18:51:31.951Z,31.00
2022-10-10T18:54:03.401Z,39.73
2022-10-10T18:56:32.343Z,30.67
2022-10-10T18:59:01.693Z,27.20
2022-10-10T19:01:30.810Z,39.83
2022-10-10T19:03:57.568Z,29.13
2022-10-10T19:06:25.292Z,28.57
2022-10-10T19:08:54.712Z,31.07
2022-10-10T19:11:34.271Z,34.47
2022-10-10T19:14:03.905Z,26.13
2022-10-10T19:16:30.979Z,38.80
2022-10-10T19:18:58.991Z,34.50
2022-10-10T19:21:30.050Z,27.67
2022-10-10T19:23:59.750Z,28.63
2022-10-10T19:26:26.998Z,41.67
2022-10-10T19:28:55.036Z,26.83
2022-10-10T19:31:22.407Z,30.93
2022-10-10T19:33:52.262Z,28.60
2022-10-10T19:36:19.255Z,36.23
2022-10-10T19:38:46.398Z,37.70
2022-10-10T19:41:14.204Z,34.47
2022-10-10T19:43:42.585Z,26.20
2022-10-10T19:46:12.692Z,34.53
2022-10-10T19:48:39.960Z,32.00
2022-10-10T19:51:09.732Z,36.87
2022-10-10T19:53:37.474Z,42.70
2022-10-10T19:56:07.323Z,28.27
2022-10-10T19:58:34.881Z,25.80
2022-10-10T20:01:09.804Z,24.23
2022-10-10T20:03:36.773Z,34.10
2022-10-10T20:06:04.393Z,28.50
2022-10-10T20:08:31.511Z,36.73
2022-10-10T20:10:58.207Z,26.67
2022-10-10T20:13:24.973Z,27.67
2022-10-10T20:15:51.772Z,30.43
2022-10-10T20:18:20.692Z,26.13
2022-10-10T20:20:50.402Z,30.03
2022-10-10T20:23:24.754Z,28.20
2022-10-10T20:25:51.447Z,33.17
2022-10-10T20:28:19.998Z,25.13
2022-10-10T20:30:49.462Z,43.93
2022-10-10T20:33:20.541Z,24.80
2022-10-10T20:35:49.354Z,23.03
2022-10-10T20:38:19.551Z,26.40
2022-10-10T20:40:46.523Z,27.70
2022-10-10T20:43:14.926Z,24.20
2022-10-10T20:45:42.088Z,24.50
2022-10-10T20:48:09.831Z,25.57
2022-10-10T20:50:37.193Z,28.43
2022-10-10T20:53:04.580Z,24.57
2022-10-10T20:55:31.734Z,25.40
2022-10-10T20:57:58.514Z,23.03
2022-10-10T21:00:25.660Z,27.50
2022-10-10T21:02:53.875Z,31.73
2022-10-10T21:05:20.579Z,25.40
2022-10-10T21:07:47.672Z,22.53
2022-10-10T21:10:14.476Z,28.43
2022-10-10T21:12:42.524Z,37.63
2022-10-10T21:15:09.596Z,24.43
2022-10-10T21:17:36.316Z,36.73
2022-10-10T21:20:03.009Z,25.00
2022-10-10T21:22:29.616Z,23.20
2022-10-10T21:24:56.756Z,22.97
2022-10-10T21:27:23.472Z,24.33
2022-10-10T21:29:50.209Z,27.60
2022-10-10T21:32:17.017Z,21.20
2022-10-10T21:34:43.721Z,30.03
2022-10-10T21:37:10.380Z,22.60
2022-10-10T21:39:37.010Z,23.73
2022-10-10T21:42:03.902Z,24.10
2022-10-10T21:44:30.910Z,20.63
2022-10-10T21:46:57.511Z,19.87
2022-10-10T21:49:24.338Z,28.43
2022-10-10T21:51:51.417Z,24.47
2022-10-10T21:54:18.024Z,26.40
2022-10-10T21:56:44.646Z,22.53
2022-10-10T21:59:11.855Z,30.53
2022-10-10T22:01:38.477Z,26.10
2022-10-10T22:04:05.737Z,21.17
2022-10-10T22:06:32.693Z,25.17
2022-10-10T22:09:01.008Z,25.90
2022-10-10T22:11:28.752Z,22.97
2022-10-10T22:13:55.485Z,18.63
2022-10-10T22:16:22.672Z,19.23
2022-10-10T22:18:56.401Z,22.47
2022-10-10T22:21:25.694Z,26.83
2022-10-10T22:23:55.917Z,21.57
2022-10-10T22:26:22.544Z,17.27
2022-10-10T22:28:49.242Z,14.37
2022-10-10T22:31:16.833Z,16.57
2022-10-10T22:33:43.879Z,14.43
2022-10-10T22:36:11.132Z,14.53
2022-10-10T22:38:40.033Z,16.00
2022-10-10T22:41:06.842Z,10.60
2022-10-10T22:43:33.839Z,12.00
2022-10-10T22:46:01.102Z,14.57
2022-10-10T22:48:29.098Z,14.50
2022-10-10T22:51:17.051Z,9.70
2022-10-10T22:53:45.095Z,8.17
2022-10-10T22:56:19.081Z,6.57
2022-10-10T22:58:46.713Z,10.37
2022-10-10T23:01:19.526Z,7.93
2022-10-10T23:03:46.275Z,8.70
2022-10-10T23:06:13.026Z,18.80
2022-10-10T23:08:39.894Z,13.73
2022-10-10T23:11:06.966Z,10.33
2022-10-10T23:13:33.624Z,13.90
2022-10-10T23:16:00.270Z,11.53
2022-10-10T23:18:28.329Z,12.47
2022-10-10T23:20:54.929Z,13.73
2022-10-10T23:23:21.567Z,11.83
2022-10-10T23:25:48.546Z,10.70
2022-10-10T23:28:16.090Z,12.10
2022-10-10T23:30:44.752Z,12.80
2022-10-10T23:33:12.403Z,15.40
2022-10-10T23:35:39.065Z,16.00
2022-10-10T23:38:06.191Z,18.03
2022-10-10T23:40:33.855Z,13.63
2022-10-10T23:43:00.667Z,14.13
2022-10-10T23:45:27.327Z,16.37
2022-10-10T23:47:53.922Z,14.57
2022-10-10T23:50:20.507Z,10.83
2022-10-10T23:52:47.149Z,15.37
2022-10-10T23:55:13.765Z,11.90
2022-10-10T23:57:40.341Z,12.80
